Time;durP1;ratioP1;P1;durP2;ratioP2;P2;SDS_P1;SDS_P2;PMS_P1;PMS_P2;Temp;Humidity;BMP_temperature;BMP_pressure;BME280_temperature;BME280_humidity;BME280_pressure;Samples;Min_cycle;Max_cycle;Signal;HPM_P1;HPM_P2
2021/01/06 00:00:45;;;;;;;241.05;41.83;;;0.50;99.90;;;;;;5047725;28;20084;-74
2021/01/06 00:03:15;;;;;;;245.38;47.45;;;0.50;99.90;;;;;;5047204;28;20482;-75
2021/01/06 00:05:42;;;;;;;245.15;44.13;;;0.50;99.90;;;;;;5048272;28;20183;-75
2021/01/06 00:08:09;;;;;;;210.65;42.45;;;0.50;99.90;;;;;;5029393;28;20072;-77
2021/01/06 00:10:35;;;;;;;389.20;48.55;;;0.50;99.90;;;;;;5047648;28;20140;-75
2021/01/06 00:13:02;;;;;;;313.65;48.80;;;0.50;99.90;;;;;;5047911;28;20449;-75
2021/01/06 00:15:34;;;;;;;387.85;50.03;;;0.50;99.90;;;;;;5047776;28;20128;-76
2021/01/06 00:18:01;;;;;;;232.32;45.30;;;0.50;99.90;;;;;;5029089;28;20114;-76
2021/01/06 00:20:29;;;;;;;272.75;47.53;;;0.50;99.90;;;;;;5047599;28;20045;-75
2021/01/06 00:22:56;;;;;;;358.35;50.88;;;0.50;99.90;;;;;;5029549;28;20398;-75
2021/01/06 00:25:27;;;;;;;208.93;44.47;;;0.50;99.90;;;;;;5039261;28;20072;-75
2021/01/06 00:27:54;;;;;;;284.75;47.33;;;0.50;99.90;;;;;;5029329;28;20165;-76
2021/01/06 00:30:38;;;;;;;271.45;45.40;;;0.50;99.90;;;;;;5047761;28;20063;-77
2021/01/06 00:33:08;;;;;;;237.18;44.00;;;0.50;99.90;;;;;;5022859;28;20125;-75
2021/01/06 00:35:35;;;;;;;142.93;40.60;;;0.50;99.90;;;;;;5020031;28;20758;-74
2021/01/06 00:38:05;;;;;;;237.10;49.60;;;0.50;99.90;;;;;;5047608;28;20049;-74
2021/01/06 00:40:34;;;;;;;234.70;43.25;;;0.50;99.90;;;;;;5046057;28;20514;-77
2021/01/06 00:43:04;;;;;;;291.58;47.33;;;0.50;99.90;;;;;;5047134;28;20182;-75
2021/01/06 00:45:31;;;;;;;143.85;39.05;;;0.50;99.90;;;;;;5029239;28;20451;-75
2021/01/06 00:47:58;;;;;;;412.75;48.30;;;0.40;99.90;;;;;;5046571;28;20152;-75
2021/01/06 00:50:27;;;;;;;342.33;48.15;;;0.40;99.90;;;;;;5046907;28;20407;-76
2021/01/06 00:53:02;;;;;;;262.05;46.20;;;0.40;99.90;;;;;;5029505;28;20142;-76
2021/01/06 00:55:28;;;;;;;311.15;49.22;;;0.40;99.90;;;;;;5028764;28;20072;-75
2021/01/06 00:57:55;;;;;;;379.75;48.33;;;0.40;99.90;;;;;;5046591;28;20053;-76
2021/01/06 01:00:24;;;;;;;198.07;42.42;;;0.40;99.90;;;;;;5040600;28;20045;-76
2021/01/06 01:02:51;;;;;;;300.92;47.88;;;0.40;99.90;;;;;;5046463;28;20098;-76
2021/01/06 01:05:24;;;;;;;242.23;43.53;;;0.40;99.90;;;;;;5047439;28;20443;-76
2021/01/06 01:07:50;;;;;;;;;;;0.40;99.90;;;;;;5047594;28;20483;-75
2021/01/06 01:10:35;;;;;;;240.23;41.85;;;0.40;99.90;;;;;;5028160;28;19939;-76
2021/01/06 01:13:12;;;;;;;238.85;43.47;;;0.40;99.90;;;;;;5014898;28;20049;-75
2021/01/06 01:15:40;;;;;;;189.05;42.65;;;0.30;99.90;;;;;;5046300;28;20148;-75
2021/01/06 01:18:10;;;;;;;270.67;45.90;;;0.30;99.90;;;;;;5032187;28;20095;-75
2021/01/06 01:20:43;;;;;;;267.63;48.38;;;0.30;99.90;;;;;;5046608;28;20091;-74
2021/01/06 01:23:09;;;;;;;175.30;40.65;;;0.30;99.90;;;;;;5028359;28;20041;-74
2021/01/06 01:25:35;;;;;;;190.45;43.47;;;0.30;99.90;;;;;;5045400;28;20151;-74
2021/01/06 01:28:02;;;;;;;172.60;41.63;;;0.30;99.90;;;;;;5045771;28;20110;-76
2021/01/06 01:30:28;;;;;;;203.55;43.08;;;0.30;99.90;;;;;;5045940;28;20045;-76
2021/01/06 01:32:55;;;;;;;179.48;44.00;;;0.30;99.90;;;;;;5045625;28;20126;-77
2021/01/06 01:35:27;;;;;;;181.23;40.78;;;0.30;99.90;;;;;;5046730;28;20131;-77
2021/01/06 01:37:55;;;;;;;132.57;40.63;;;0.30;99.90;;;;;;5046142;28;20091;-75
2021/01/06 01:40:30;;;;;;;125.88;39.60;;;0.20;99.90;;;;;;5045836;28;20171;-78
2021/01/06 01:43:14;;;;;;;135.95;38.72;;;0.30;99.90;;;;;;5046089;28;20095;-76
2021/01/06 01:46:01;;;;;;;142.82;39.80;;;0.20;99.90;;;;;;5046285;28;20045;-76
2021/01/06 01:48:44;;;;;;;155.88;40.03;;;0.20;99.90;;;;;;5044875;28;20052;-75
2021/01/06 01:51:19;;;;;;;132.73;37.75;;;0.20;99.90;;;;;;5046461;28;20464;-74
2021/01/06 01:54:00;;;;;;;112.03;36.92;;;0.20;99.90;;;;;;5036932;28;20392;-74
2021/01/06 01:56:43;;;;;;;113.68;36.65;;;0.20;99.90;;;;;;5027827;28;20076;-75
2021/01/06 01:59:27;;;;;;;104.20;36.67;;;0.20;99.90;;;;;;5027236;28;20566;-74
2021/01/06 02:01:58;;;;;;;109.70;35.17;;;0.20;99.90;;;;;;5038711;28;20072;-74
2021/01/06 02:04:35;;;;;;;103.55;33.80;;;0.20;99.90;;;;;;5044728;28;20110;-75
2021/01/06 02:07:18;;;;;;;108.20;33.35;;;0.20;99.90;;;;;;5045622;28;20049;-75
2021/01/06 02:09:52;;;;;;;97.82;33.15;;;0.20;99.90;;;;;;5044834;28;20057;-74
2021/01/06 02:12:33;;;;;;;99.93;34.72;;;0.10;99.90;;;;;;5045356;28;20063;-76
2021/01/06 02:15:09;;;;;;;103.07;33.35;;;0.20;99.90;;;;;;5045676;28;20081;-75
2021/01/06 02:17:36;;;;;;;92.15;34.67;;;0.10;99.90;;;;;;5044652;28;20103;-74
2021/01/06 02:20:11;;;;;;;90.90;34.80;;;0.10;99.90;;;;;;5045946;28;20106;-75
2021/01/06 02:22:38;;;;;;;88.97;34.20;;;0.10;99.90;;;;;;5045600;28;20048;-75
2021/01/06 02:25:05;;;;;;;88.43;35.17;;;0.10;99.90;;;;;;5037268;28;20053;-74
2021/01/06 02:27:31;;;;;;;99.70;36.55;;;0.10;99.90;;;;;;5022763;28;20087;-75
2021/01/06 02:29:58;;;;;;;86.93;32.60;;;0.10;99.90;;;;;;5045182;28;20065;-74
2021/01/06 02:32:25;;;;;;;83.57;31.48;;;0.10;99.90;;;;;;5045062;28;20053;-75
2021/01/06 02:34:51;;;;;;;79.53;31.85;;;0.10;99.90;;;;;;5027265;28;20710;-77
2021/01/06 02:37:18;;;;;;;80.28;32.03;;;0.10;99.90;;;;;;5027978;28;20468;-76
2021/01/06 02:39:46;;;;;;;87.22;34.28;;;0.10;99.90;;;;;;5026407;28;20527;-75
2021/01/06 02:42:12;;;;;;;84.68;33.17;;;0.10;99.90;;;;;;5027434;28;20171;-74
2021/01/06 02:44:38;;;;;;;81.45;32.92;;;0.10;99.90;;;;;;5044815;28;20124;-75
2021/01/06 02:47:06;;;;;;;82.63;32.75;;;0.10;99.90;;;;;;5045441;28;20081;-74
2021/01/06 02:49:32;;;;;;;81.03;33.33;;;0.10;99.90;;;;;;5044392;28;20049;-74
2021/01/06 02:52:08;;;;;;;77.55;32.45;;;0.00;99.90;;;;;;5045783;28;20671;-74
2021/01/06 02:54:37;;;;;;;74.80;32.22;;;0.00;99.90;;;;;;5043861;28;20049;-75
2021/01/06 02:57:05;;;;;;;89.05;32.95;;;0.00;99.90;;;;;;5045102;28;20146;-74
2021/01/06 02:59:37;;;;;;;85.10;33.75;;;0.00;99.90;;;;;;5044584;28;20053;-74
2021/01/06 03:02:06;;;;;;;100.32;33.97;;;0.00;99.90;;;;;;5038142;28;20079;-74
2021/01/06 03:04:36;;;;;;;93.35;35.25;;;0.00;99.90;;;;;;5043985;28;20045;-75
2021/01/06 03:07:05;;;;;;;86.15;33.72;;;0.00;99.90;;;;;;5027564;28;20416;-74
2021/01/06 03:09:41;;;;;;;81.15;31.92;;;0.00;99.90;;;;;;5025909;28;20122;-75
2021/01/06 03:12:29;;;;;;;73.32;30.55;;;0.00;99.90;;;;;;5027592;28;20538;-74
2021/01/06 03:14:59;;;;;;;83.53;31.42;;;0.00;99.90;;;;;;5044920;28;20618;-75
2021/01/06 03:17:28;;;;;;;81.60;32.35;;;0.00;99.90;;;;;;5044429;28;20126;-75
2021/01/06 03:20:09;;;;;;;79.82;31.73;;;0.00;99.90;;;;;;5027023;28;20118;-74
2021/01/06 03:22:37;;;;;;;78.82;30.75;;;0.00;99.90;;;;;;5044934;28;20052;-75
2021/01/06 03:25:14;;;;;;;89.15;34.22;;;0.00;99.90;;;;;;5044398;28;20622;-75
2021/01/06 03:27:43;;;;;;;77.43;31.48;;;0.00;99.90;;;;;;5044675;28;20159;-74
2021/01/06 03:30:16;;;;;;;72.35;31.45;;;0.00;99.90;;;;;;5044779;28;20421;-74
2021/01/06 03:33:03;;;;;;;75.25;28.95;;;-0.10;99.90;;;;;;5043804;28;20483;-74
2021/01/06 03:35:45;;;;;;;68.00;29.13;;;-0.10;99.90;;;;;;5045081;28;20099;-74
2021/01/06 03:38:14;;;;;;;74.22;31.50;;;-0.10;99.90;;;;;;5045535;28;20152;-75
2021/01/06 03:40:44;;;;;;;71.68;30.08;;;-0.10;99.90;;;;;;5048083;28;20135;-75
2021/01/06 03:43:11;;;;;;;76.13;30.00;;;-0.10;99.90;;;;;;5030290;28;20135;-74
2021/01/06 03:46:01;;;;;;;71.72;30.58;;;-0.10;99.90;;;;;;5048157;28;20123;-75
2021/01/06 03:48:50;;;;;;;70.57;29.77;;;-0.10;99.90;;;;;;5029570;28;20602;-75
2021/01/06 03:51:35;;;;;;;75.70;30.50;;;-0.10;99.90;;;;;;5048714;28;20048;-74
2021/01/06 03:54:31;;;;;;;72.13;29.65;;;-0.10;99.90;;;;;;5047795;28;20107;-74
2021/01/06 03:56:59;;;;;;;66.05;29.13;;;-0.10;99.90;;;;;;5030565;28;20214;-74
2021/01/06 03:59:32;;;;;;;70.88;30.95;;;-0.10;99.90;;;;;;5028843;28;20131;-74
2021/01/06 04:02:20;;;;;;;72.63;30.70;;;-0.10;99.90;;;;;;5030280;28;20077;-74
2021/01/06 04:05:02;;;;;;;73.40;30.45;;;-0.10;99.90;;;;;;5048174;28;20403;-75
2021/01/06 04:07:33;;;;;;;70.63;30.38;;;-0.10;99.90;;;;;;5030417;28;20740;-75
2021/01/06 04:10:10;;;;;;;66.53;28.80;;;-0.10;99.90;;;;;;5029344;28;20063;-74
2021/01/06 04:12:38;;;;;;;68.43;29.33;;;-0.10;99.90;;;;;;5029754;28;20751;-74
2021/01/06 04:15:10;;;;;;;69.55;29.10;;;-0.10;99.90;;;;;;5047953;28;20053;-73
2021/01/06 04:17:38;;;;;;;58.92;27.85;;;-0.20;99.90;;;;;;5047054;28;20254;-75
2021/01/06 04:20:08;;;;;;;59.78;28.20;;;-0.10;99.90;;;;;;5047333;28;20091;-74
2021/01/06 04:22:42;;;;;;;59.75;27.00;;;-0.10;99.90;;;;;;5033554;28;20084;-74
2021/01/06 04:25:31;;;;;;;52.67;25.77;;;-0.10;99.90;;;;;;5046172;28;20044;-74
2021/01/06 04:28:01;;;;;;;50.35;25.48;;;-0.20;99.90;;;;;;5028264;28;20152;-75
2021/01/06 04:30:38;;;;;;;50.97;24.75;;;-0.20;99.90;;;;;;5046569;28;20103;-75
2021/01/06 04:33:11;;;;;;;51.30;25.45;;;-0.20;99.90;;;;;;5028225;28;20049;-74
2021/01/06 04:35:37;;;;;;;54.67;25.60;;;-0.20;99.90;;;;;;5028965;28;20621;-74
2021/01/06 04:38:04;;;;;;;50.38;25.92;;;-0.20;99.90;;;;;;5046309;28;20120;-74
2021/01/06 04:40:40;;;;;;;53.30;25.65;;;-0.20;99.90;;;;;;5045579;28;20077;-75
2021/01/06 04:43:47;;;;;;;47.53;24.25;;;-0.20;99.90;;;;;;5045923;28;20045;-74
2021/01/06 04:46:44;;;;;;;45.05;23.17;;;-0.20;99.90;;;;;;5046271;28;20354;-74
2021/01/06 04:49:32;;;;;;;45.42;23.05;;;-0.20;99.90;;;;;;5044384;28;20499;-75
2021/01/06 04:52:20;;;;;;;50.25;24.13;;;-0.20;99.90;;;;;;5046390;28;20052;-74
2021/01/06 04:55:10;;;;;;;41.03;22.08;;;-0.20;99.90;;;;;;5045700;28;20041;-74
2021/01/06 04:57:56;;;;;;;44.00;22.95;;;-0.20;99.90;;;;;;5045659;28;20120;-75
2021/01/06 05:00:53;;;;;;;51.72;24.63;;;-0.20;99.90;;;;;;5022295;28;20596;-75
2021/01/06 05:03:33;;;;;;;50.20;23.55;;;-0.20;99.90;;;;;;5045280;28;20048;-75
2021/01/06 05:06:22;;;;;;;51.10;25.55;;;-0.20;99.90;;;;;;5046453;28;20334;-74
2021/01/06 05:08:54;;;;;;;44.60;22.90;;;-0.20;99.90;;;;;;5045391;28;20130;-74
2021/01/06 05:11:25;;;;;;;38.22;18.85;;;-0.20;99.90;;;;;;5046474;28;20124;-75
2021/01/06 05:14:08;;;;;;;47.10;23.38;;;-0.20;99.90;;;;;;5042386;28;20483;-77
2021/01/06 05:16:44;;;;;;;49.78;24.83;;;-0.20;99.90;;;;;;5038735;28;20059;-76
2021/01/06 05:19:16;;;;;;;50.45;24.42;;;-0.20;99.90;;;;;;5031231;28;20098;-74
2021/01/06 05:21:43;;;;;;;49.20;24.15;;;-0.20;99.90;;;;;;5046332;28;20121;-74
2021/01/06 05:24:33;;;;;;;46.38;24.05;;;-0.20;99.90;;;;;;5044647;28;20131;-74
2021/01/06 05:27:19;;;;;;;48.33;23.90;;;-0.20;99.90;;;;;;5040396;28;20080;-74
2021/01/06 05:29:51;;;;;;;50.47;23.20;;;-0.20;99.90;;;;;;5045789;28;20044;-74
2021/01/06 05:32:28;;;;;;;46.88;22.88;;;-0.20;99.90;;;;;;5044790;28;20037;-75
2021/01/06 05:34:58;;;;;;;44.70;23.48;;;-0.20;99.90;;;;;;5045717;28;20119;-74
2021/01/06 05:37:26;;;;;;;48.95;23.75;;;-0.20;99.90;;;;;;5045403;28;20076;-75
2021/01/06 05:39:55;;;;;;;50.85;24.35;;;-0.30;99.90;;;;;;5044418;28;20041;-74
2021/01/06 05:42:25;;;;;;;47.75;23.33;;;-0.30;99.90;;;;;;5045213;28;20056;-77
2021/01/06 05:44:54;;;;;;;52.72;23.90;;;-0.30;99.90;;;;;;5045679;28;20041;-77
2021/01/06 05:47:36;;;;;;;51.97;23.83;;;-0.30;99.90;;;;;;5045409;28;20503;-75
2021/01/06 05:50:16;;;;;;;46.10;23.02;;;-0.30;99.90;;;;;;5044335;28;20145;-75
2021/01/06 05:52:51;;;;;;;51.30;24.00;;;-0.30;99.90;;;;;;5045580;28;20046;-75
2021/01/06 05:55:19;;;;;;;52.33;24.50;;;-0.30;99.90;;;;;;5045427;28;20063;-75
2021/01/06 05:57:54;;;;;;;49.78;23.23;;;-0.30;99.90;;;;;;5045250;28;20049;-74
2021/01/06 06:00:31;;;;;;;47.25;22.70;;;-0.30;99.90;;;;;;5039443;28;20050;-75
2021/01/06 06:03:00;;;;;;;45.38;22.35;;;-0.30;99.90;;;;;;5044097;28;20081;-74
2021/01/06 06:06:00;;;;;;;47.10;23.00;;;-0.30;99.90;;;;;;5045509;28;20126;-75
2021/01/06 06:08:59;;;;;;;50.70;23.52;;;-0.30;99.90;;;;;;5039426;28;20480;-75
2021/01/06 06:12:04;;;;;;;47.50;23.85;;;-0.30;99.90;;;;;;5045577;28;20500;-75
2021/01/06 06:14:36;;;;;;;52.20;24.67;;;-0.30;99.90;;;;;;5016028;28;20076;-75
2021/01/06 06:17:18;;;;;;;46.78;24.42;;;-0.30;99.90;;;;;;5044910;28;20048;-76
2021/01/06 06:20:03;;;;;;;47.88;23.75;;;-0.30;99.90;;;;;;5044512;28;20048;-76
2021/01/06 06:22:34;;;;;;;51.28;23.73;;;-0.30;99.90;;;;;;5026568;28;20095;-74
2021/01/06 06:25:24;;;;;;;51.95;24.52;;;-0.30;99.90;;;;;;5037571;28;20073;-75
2021/01/06 06:28:27;;;;;;;50.42;24.08;;;-0.30;99.90;;;;;;5032165;28;20464;-75
2021/01/06 06:31:01;;;;;;;49.17;25.08;;;-0.30;99.90;;;;;;5026838;28;20144;-75
2021/01/06 06:33:31;;;;;;;56.47;25.23;;;-0.30;99.90;;;;;;5043527;28;20080;-76
2021/01/06 06:36:00;;;;;;;46.75;25.10;;;-0.30;99.90;;;;;;5044926;28;20718;-75
2021/01/06 06:38:40;;;;;;;54.08;25.35;;;-0.30;99.90;;;;;;5043491;28;20132;-76
2021/01/06 06:41:10;;;;;;;53.25;25.88;;;-0.30;99.90;;;;;;5044368;28;20098;-75
2021/01/06 06:43:49;;;;;;;47.88;25.20;;;-0.30;99.90;;;;;;5044228;28;20088;-75
2021/01/06 06:46:27;;;;;;;50.88;24.30;;;-0.30;99.90;;;;;;5044012;28;20043;-76
2021/01/06 06:49:33;;;;;;;47.85;23.75;;;-0.30;99.90;;;;;;5043407;28;20073;-75
2021/01/06 06:52:30;;;;;;;44.75;24.45;;;-0.40;99.90;;;;;;5020405;28;20136;-76
2021/01/06 06:55:25;;;;;;;42.33;22.50;;;-0.40;99.90;;;;;;5013083;28;20065;-75
2021/01/06 06:58:06;;;;;;;43.35;22.83;;;-0.30;99.90;;;;;;5040557;28;20503;-77
2021/01/06 07:00:36;;;;;;;45.22;24.02;;;-0.30;99.90;;;;;;5043365;28;20649;-77
2021/01/06 07:03:05;;;;;;;42.03;23.55;;;-0.30;99.90;;;;;;5043357;28;20515;-74
2021/01/06 07:05:45;;;;;;;47.47;24.52;;;-0.30;99.90;;;;;;5044594;28;20107;-76
2021/01/06 07:08:26;;;;;;;48.30;24.08;;;-0.40;99.90;;;;;;5043814;28;20076;-77
2021/01/06 07:10:58;;;;;;;52.47;24.77;;;-0.30;99.90;;;;;;5032077;28;20044;-75
2021/01/06 07:13:25;;;;;;;48.53;24.50;;;-0.30;99.90;;;;;;5045055;28;20155;-76
2021/01/06 07:15:57;;;;;;;48.80;24.10;;;-0.30;99.90;;;;;;5047984;28;20075;-82
2021/01/06 07:18:36;;;;;;;35.33;18.30;;;-0.30;99.90;;;;;;5047198;28;20049;-80
2021/01/06 07:21:08;;;;;;;50.00;24.08;;;-0.40;99.90;;;;;;5036103;28;20049;-81
2021/01/06 07:23:43;;;;;;;54.88;25.10;;;-0.40;99.90;;;;;;5047660;28;20139;-79
2021/01/06 07:26:27;;;;;;;60.97;26.65;;;-0.40;99.90;;;;;;5048057;28;20140;-80
2021/01/06 07:29:06;;;;;;;61.67;26.92;;;-0.30;99.90;;;;;;5047124;28;20085;-80
2021/01/06 07:32:00;;;;;;;55.65;25.30;;;-0.30;99.90;;;;;;5048367;28;20059;-80
2021/01/06 07:34:37;;;;;;;54.92;25.73;;;-0.30;99.90;;;;;;5029276;28;20041;-80
2021/01/06 07:37:06;;;;;;;57.83;26.27;;;-0.30;99.90;;;;;;5048530;28;20036;-81
2021/01/06 07:39:37;;;;;;;55.10;26.00;;;-0.30;99.90;;;;;;5022990;28;20108;-79
2021/01/06 07:42:30;;;;;;;64.80;27.15;;;-0.30;99.90;;;;;;5040649;28;20048;-78
2021/01/06 07:45:28;;;;;;;62.53;26.55;;;-0.30;99.90;;;;;;5047672;28;20460;-79
2021/01/06 07:48:13;;;;;;;60.72;27.38;;;-0.30;99.90;;;;;;5046691;28;20073;-78
2021/01/06 07:50:40;;;;;;;64.07;27.92;;;-0.30;99.90;;;;;;5041370;28;20360;-81
2021/01/06 07:53:11;;;;;;;56.83;26.02;;;-0.40;99.90;;;;;;5048125;28;20124;-79
2021/01/06 07:55:42;;;;;;;59.45;27.25;;;-0.30;99.90;;;;;;5039701;28;20550;-79
2021/01/06 07:58:17;;;;;;;59.25;27.70;;;-0.30;99.90;;;;;;5027880;28;20076;-81
2021/01/06 08:00:57;;;;;;;60.42;27.23;;;-0.30;99.90;;;;;;5046112;28;20128;-74
2021/01/06 08:03:28;;;;;;;56.97;26.33;;;-0.30;99.90;;;;;;5028709;28;20098;-74
2021/01/06 08:05:59;;;;;;;58.88;26.58;;;-0.20;99.90;;;;;;5013994;28;20099;-75
2021/01/06 08:08:30;;;;;;;54.92;25.63;;;-0.20;99.90;;;;;;5037845;28;20099;-74
2021/01/06 08:11:08;;;;;;;54.28;25.40;;;-0.20;99.90;;;;;;5012515;28;20139;-74
2021/01/06 08:13:37;;;;;;;49.78;24.80;;;-0.20;99.90;;;;;;5010201;28;20049;-74
2021/01/06 08:16:12;;;;;;;45.55;24.08;;;-0.10;99.90;;;;;;5012154;28;20695;-74
2021/01/06 08:18:56;;;;;;;49.72;23.63;;;-0.10;99.90;;;;;;5014829;28;20443;-75
2021/01/06 08:21:30;;;;;;;48.00;24.30;;;-0.10;99.90;;;;;;5023926;28;20077;-75
2021/01/06 08:24:19;;;;;;;44.83;22.88;;;0.00;99.90;;;;;;5028239;28;20057;-76
2021/01/06 08:26:51;;;;;;;42.00;22.10;;;0.00;99.90;;;;;;5037776;28;20115;-75
2021/01/06 08:29:27;;;;;;;42.10;22.70;;;0.00;99.90;;;;;;5032119;28;20053;-75
2021/01/06 08:32:19;;;;;;;38.72;20.05;;;0.10;99.90;;;;;;5038592;28;20049;-75
2021/01/06 08:34:58;;;;;;;36.75;20.52;;;0.00;99.90;;;;;;5025463;28;20055;-74
2021/01/06 08:37:33;;;;;;;38.75;20.92;;;0.10;99.90;;;;;;5018049;28;20046;-75
2021/01/06 08:40:02;;;;;;;36.95;19.90;;;0.10;99.90;;;;;;5024368;28;20126;-75
2021/01/06 08:42:45;;;;;;;42.58;22.20;;;0.00;99.90;;;;;;5026352;28;20053;-76
2021/01/06 08:45:28;;;;;;;41.33;22.70;;;0.10;99.90;;;;;;5011335;28;20049;-76
2021/01/06 08:47:55;;;;;;;34.83;21.05;;;0.10;99.90;;;;;;5022805;28;20057;-74
2021/01/06 08:50:42;;;;;;;38.97;21.10;;;0.20;99.90;;;;;;5028261;28;20049;-78
2021/01/06 08:53:09;;;;;;;37.55;21.02;;;0.20;99.90;;;;;;5040910;28;20076;-75
2021/01/06 08:55:54;;;;;;;39.15;20.85;;;0.30;99.90;;;;;;5024809;28;20089;-74
2021/01/06 08:58:20;;;;;;;35.20;21.60;;;0.30;99.90;;;;;;5032805;28;20243;-76
2021/01/06 09:00:50;;;;;;;32.92;20.30;;;0.40;99.90;;;;;;5028482;28;20064;-75
2021/01/06 09:03:21;;;;;;;37.67;21.48;;;0.30;99.90;;;;;;5046159;28;20053;-75
2021/01/06 09:06:05;;;;;;;35.17;20.92;;;0.40;99.90;;;;;;5047598;28;20045;-75
2021/01/06 09:08:38;;;;;;;36.58;21.50;;;0.40;99.90;;;;;;5036114;28;20048;-75
2021/01/06 09:11:10;;;;;;;40.08;22.25;;;0.30;99.90;;;;;;5053691;28;20148;-75
2021/01/06 09:13:40;;;;;;;;;;;0.40;99.90;;;;;;5043445;28;20041;-75
2021/01/06 09:16:46;;;;;;;38.47;21.48;;;0.40;99.90;;;;;;5044092;28;19971;-74
2021/01/06 09:19:59;;;;;;;33.13;19.85;;;0.40;99.90;;;;;;5002671;28;20156;-74
2021/01/06 09:22:39;;;;;;;31.88;20.33;;;0.40;99.90;;;;;;5037609;28;20037;-75
2021/01/06 09:25:11;;;;;;;32.05;20.48;;;0.50;99.90;;;;;;5042183;28;20077;-76
2021/01/06 09:28:08;;;;;;;32.17;19.58;;;0.50;99.90;;;;;;5025803;28;20476;-77
2021/01/06 09:30:42;;;;;;;35.78;20.83;;;0.40;99.90;;;;;;5008316;28;20053;-76
2021/01/06 09:33:19;;;;;;;32.58;20.08;;;0.50;99.90;;;;;;5026091;28;20044;-75
2021/01/06 09:35:48;;;;;;;32.55;20.50;;;0.50;99.90;;;;;;5034761;28;20105;-76
2021/01/06 09:38:36;;;;;;;31.95;20.02;;;0.50;99.90;;;;;;5042531;28;20111;-77
2021/01/06 09:41:16;;;;;;;32.00;20.85;;;0.50;99.90;;;;;;5025774;28;20403;-75
2021/01/06 09:44:06;;;;;;;26.92;18.25;;;0.60;99.90;;;;;;5037923;28;20040;-76
2021/01/06 09:46:38;;;;;;;29.92;18.75;;;0.60;99.90;;;;;;5026934;28;20049;-76
2021/01/06 09:52:49;;;;;;;25.42;16.83;;;0.60;99.90;;;;;;5025833;28;20554;-77
2021/01/06 09:55:28;;;;;;;27.80;17.58;;;0.60;99.90;;;;;;5030079;28;20592;-75
2021/01/06 09:58:11;;;;;;;27.10;18.52;;;0.70;99.90;;;;;;5044677;28;20078;-76
2021/01/06 10:01:19;;;;;;;24.23;16.83;;;0.80;99.90;;;;;;5043233;28;20106;-75
2021/01/06 10:04:23;;;;;;;25.52;16.95;;;0.80;99.90;;;;;;5048636;28;20048;-76
2021/01/06 10:07:08;;;;;;;23.92;15.13;;;0.70;99.90;;;;;;5013648;28;20141;-76
2021/01/06 10:10:00;;;;;;;21.63;14.70;;;0.80;99.90;;;;;;5031795;28;20140;-76
2021/01/06 10:13:05;;;;;;;22.73;14.98;;;0.80;99.90;;;;;;5024671;28;20057;-75
2021/01/06 10:16:09;;;;;;;22.25;14.68;;;0.90;99.90;;;;;;5008207;28;20050;-75
2021/01/06 10:19:00;;;;;;;19.58;13.05;;;0.90;99.90;;;;;;5015515;28;20548;-76
2021/01/06 10:21:56;;;;;;;24.27;15.13;;;0.90;99.90;;;;;;5014317;28;20046;-76
2021/01/06 10:25:02;;;;;;;24.45;15.15;;;0.90;99.90;;;;;;4992712;28;20050;-76
2021/01/06 10:27:57;;;;;;;24.17;16.33;;;1.00;99.90;;;;;;5005422;28;20054;-75
2021/01/06 10:30:30;;;;;;;21.58;15.07;;;0.90;99.90;;;;;;5024175;28;20445;-75
2021/01/06 10:33:15;;;;;;;22.17;15.38;;;0.90;99.90;;;;;;5022257;28;20498;-76
2021/01/06 10:35:47;;;;;;;23.40;15.30;;;0.90;99.90;;;;;;5021684;28;20045;-75
2021/01/06 10:38:42;;;;;;;23.15;14.68;;;0.90;99.90;;;;;;5024155;28;20508;-77
2021/01/06 10:41:19;;;;;;;21.42;14.68;;;0.90;99.90;;;;;;5023391;28;20492;-74
2021/01/06 10:43:58;;;;;;;18.20;13.05;;;0.90;99.90;;;;;;5012753;28;20081;-75
2021/01/06 10:46:36;;;;;;;17.92;12.80;;;1.00;99.90;;;;;;5019736;28;20122;-76
2021/01/06 10:49:06;;;;;;;18.55;13.10;;;1.00;99.90;;;;;;5013644;28;20049;-75
2021/01/06 10:51:57;;;;;;;17.10;12.75;;;1.00;99.90;;;;;;5011478;28;20149;-77
2021/01/06 10:55:05;;;;;;;19.08;13.20;;;1.10;99.90;;;;;;5004498;28;20050;-76
2021/01/06 10:57:46;;;;;;;15.32;11.38;;;1.10;99.90;;;;;;4971723;28;20049;-74
2021/01/06 11:00:30;;;;;;;17.98;12.40;;;1.10;99.90;;;;;;5013469;28;20041;-76
2021/01/06 11:03:35;;;;;;;18.63;12.77;;;1.10;99.90;;;;;;5010593;28;20149;-75
2021/01/06 11:06:17;;;;;;;16.17;12.80;;;1.00;99.90;;;;;;5015865;28;20046;-75
2021/01/06 11:09:02;;;;;;;19.02;13.40;;;1.10;99.90;;;;;;5006999;28;20052;-74
2021/01/06 11:12:08;;;;;;;16.98;12.88;;;1.20;99.90;;;;;;5016011;28;20476;-75
2021/01/06 11:14:55;;;;;;;19.10;12.90;;;1.20;99.90;;;;;;5023632;28;20590;-75
2021/01/06 11:17:37;;;;;;;18.45;12.65;;;1.10;99.90;;;;;;5038936;28;20041;-76
2021/01/06 11:20:27;;;;;;;18.42;12.52;;;1.20;99.90;;;;;;5037542;28;20621;-74
2021/01/06 11:23:24;;;;;;;16.88;12.30;;;1.20;99.90;;;;;;5043701;28;20586;-75
2021/01/06 11:26:20;;;;;;;16.60;12.02;;;1.20;99.90;;;;;;5037863;28;20054;-74
2021/01/06 11:28:47;;;;;;;14.95;11.25;;;1.30;99.90;;;;;;5019788;28;20075;-74
2021/01/06 11:31:21;;;;;;;14.65;11.45;;;1.40;99.90;;;;;;5007443;28;20046;-74
2021/01/06 11:33:52;;;;;;;16.60;12.35;;;1.30;99.90;;;;;;5013931;28;20057;-74
2021/01/06 11:36:22;;;;;;;16.05;11.55;;;1.30;99.90;;;;;;5036122;28;20053;-75
2021/01/06 11:38:52;;;;;;;15.82;11.10;;;1.20;99.90;;;;;;5008894;28;20117;-74
2021/01/06 11:41:46;;;;;;;15.70;12.10;;;1.30;99.90;;;;;;5042232;28;20411;-74
2021/01/06 11:44:50;;;;;;;17.20;12.50;;;1.20;99.90;;;;;;5034567;28;20049;-74
2021/01/06 11:47:44;;;;;;;15.30;11.52;;;1.10;99.90;;;;;;5041617;28;20052;-76
2021/01/06 11:50:33;;;;;;;16.73;11.75;;;1.10;99.90;;;;;;5028024;28;20081;-75
2021/01/06 11:53:29;;;;;;;17.30;12.57;;;1.20;99.90;;;;;;5011926;28;20038;-74
2021/01/06 11:56:20;;;;;;;19.50;13.57;;;1.10;99.90;;;;;;5038043;28;20045;-75
2021/01/06 11:59:21;;;;;;;18.13;13.32;;;1.10;99.90;;;;;;5038140;28;20060;-75
2021/01/06 12:02:02;;;;;;;20.13;13.25;;;1.10;99.90;;;;;;5038746;28;20149;-75
2021/01/06 12:04:32;;;;;;;18.42;13.00;;;1.20;99.90;;;;;;5028655;28;20514;-76
2021/01/06 12:07:35;;;;;;;19.73;13.38;;;1.10;99.90;;;;;;5041950;28;20898;-76
2021/01/06 12:10:20;;;;;;;22.92;14.48;;;1.20;99.90;;;;;;5025806;28;20054;-76
2021/01/06 12:13:02;;;;;;;20.23;13.30;;;1.10;99.90;;;;;;5043634;28;20049;-76
2021/01/06 12:15:52;;;;;;;18.05;11.85;;;1.10;99.90;;;;;;5046020;28;20762;-75
2021/01/06 12:18:49;;;;;;;17.60;12.50;;;1.10;99.90;;;;;;5046159;28;20149;-76
2021/01/06 12:21:33;;;;;;;18.75;13.32;;;1.10;99.90;;;;;;5037035;28;20049;-75
2021/01/06 12:24:30;;;;;;;25.27;14.95;;;1.10;99.90;;;;;;5046009;28;20140;-73
2021/01/06 12:27:09;;;;;;;17.98;12.40;;;1.10;99.90;;;;;;5042775;28;20037;-74
2021/01/06 12:29:52;;;;;;;18.83;13.52;;;1.10;99.90;;;;;;5034874;28;20112;-73
2021/01/06 12:32:25;;;;;;;23.10;12.65;;;1.00;99.90;;;;;;5045735;28;20534;-74
2021/01/06 12:35:21;;;;;;;17.58;12.82;;;1.10;99.90;;;;;;5046536;28;20045;-74
2021/01/06 12:38:03;;;;;;;18.40;13.40;;;1.00;99.90;;;;;;5045576;28;20049;-74
2021/01/06 12:40:31;;;;;;;19.65;13.70;;;1.10;99.90;;;;;;5027339;28;20048;-75
2021/01/06 12:43:00;;;;;;;20.42;13.85;;;1.00;99.90;;;;;;5044879;28;20152;-74
2021/01/06 12:45:29;;;;;;;18.35;12.70;;;1.00;99.90;;;;;;5046235;28;20519;-75
2021/01/06 12:48:20;;;;;;;20.27;12.63;;;1.00;99.90;;;;;;5044790;28;20055;-74
2021/01/06 12:51:00;;;;;;;20.40;13.48;;;1.00;99.90;;;;;;5045820;28;20049;-74
2021/01/06 12:53:36;;;;;;;20.55;13.85;;;1.00;99.90;;;;;;5027618;28;20052;-74
2021/01/06 12:56:10;;;;;;;19.33;13.23;;;1.00;99.90;;;;;;5046076;28;20052;-74
2021/01/06 12:58:46;;;;;;;18.73;13.07;;;1.10;99.90;;;;;;5045715;28;20045;-73
2021/01/06 13:01:16;;;;;;;19.38;13.75;;;1.00;99.90;;;;;;5027661;28;20127;-74
2021/01/06 13:04:04;;;;;;;20.42;13.50;;;1.10;99.90;;;;;;5027225;28;20053;-74
2021/01/06 13:06:31;;;;;;;18.98;12.90;;;1.20;99.90;;;;;;5045932;28;20045;-75
2021/01/06 13:09:13;;;;;;;19.25;14.00;;;1.20;99.90;;;;;;5031603;28;20056;-74
2021/01/06 13:11:41;;;;;;;18.80;13.18;;;1.30;99.90;;;;;;5045591;28;20119;-74
2021/01/06 13:14:35;;;;;;;19.40;13.27;;;1.30;99.90;;;;;;5045075;28;20075;-75
2021/01/06 13:17:22;;;;;;;19.50;13.00;;;1.30;99.90;;;;;;5046246;28;20105;-74
2021/01/06 13:20:00;;;;;;;19.98;13.40;;;1.30;99.90;;;;;;5045649;28;20092;-74
2021/01/06 13:22:37;;;;;;;19.45;13.52;;;1.40;99.90;;;;;;5045810;28;20049;-75
2021/01/06 13:25:12;;;;;;;22.58;13.90;;;1.40;99.90;;;;;;5038166;28;20111;-74
2021/01/06 13:27:42;;;;;;;25.65;13.55;;;1.40;99.90;;;;;;5031347;28;20052;-74
2021/01/06 13:30:42;;;;;;;20.45;13.05;;;1.40;99.90;;;;;;5045487;28;20051;-75
2021/01/06 13:33:31;;;;;;;15.95;11.93;;;1.40;99.90;;;;;;5020824;28;20445;-74